sensor_id;sensor_type;location;lat;lon;timestamp;temperature;humidity
3262;DHT22;1643;47.746;9.000;2023-04-29T00:01:11;15.00;99.90
3262;DHT22;1643;47.746;9.000;2023-04-29T00:03:36;15.00;99.90
3262;DHT22;1643;47.746;9.000;2023-04-29T00:06:02;15.00;99.90
3262;DHT22;1643;47.746;9.000;2023-04-29T00:08:28;14.90;99.90
3262;DHT22;1643;47.746;9.000;2023-04-29T00:10:53;14.90;99.90
3262;DHT22;1643;47.746;9.000;2023-04-29T00:13:20;14.90;99.90
3262;DHT22;1643;47.746;9.000;2023-04-29T00:15:45;14.90;99.90
3262;DHT22;1643;47.746;9.000;2023-04-29T00:18:11;15.00;99.90
3262;DHT22;1643;47.746;9.000;2023-04-29T00:20:38;15.00;99.90
3262;DHT22;1643;47.746;9.000;2023-04-29T00:23:04;15.00;99.90
3262;DHT22;1643;47.746;9.000;2023-04-29T00:25:30;14.90;99.90
3262;DHT22;1643;47.746;9.000;2023-04-29T00:27:56;15.00;99.90
3262;DHT22;1643;47.746;9.000;2023-04-29T00:30:29;14.90;99.90
3262;DHT22;1643;47.746;9.000;2023-04-29T00:32:55;15.00;99.90
3262;DHT22;1643;47.746;9.000;2023-04-29T00:35:21;15.00;99.90
3262;DHT22;1643;47.746;9.000;2023-04-29T00:37:46;15.00;99.90
3262;DHT22;1643;47.746;9.000;2023-04-29T00:40:12;15.00;99.90
3262;DHT22;1643;47.746;9.000;2023-04-29T00:42:42;15.00;99.90
3262;DHT22;1643;47.746;9.000;2023-04-29T00:45:08;14.90;99.90
3262;DHT22;1643;47.746;9.000;2023-04-29T00:47:36;14.90;99.90
3262;DHT22;1643;47.746;9.000;2023-04-29T00:50:01;14.90;99.90
3262;DHT22;1643;47.746;9.000;2023-04-29T00:52:29;15.00;99.90
3262;DHT22;1643;47.746;9.000;2023-04-29T00:54:56;15.00;99.90
3262;DHT22;1643;47.746;9.000;2023-04-29T00:57:22;15.00;99.90
3262;DHT22;1643;47.746;9.000;2023-04-29T00:59:48;15.00;99.90
3262;DHT22;1643;47.746;9.000;2023-04-29T01:02:14;15.00;99.90
3262;DHT22;1643;47.746;9.000;2023-04-29T01:04:40;14.90;99.90
3262;DHT22;1643;47.746;9.000;2023-04-29T01:07:41;15.00;99.90
3262;DHT22;1643;47.746;9.000;2023-04-29T01:15:09;15.00;99.90
3262;DHT22;1643;47.746;9.000;2023-04-29T01:17:47;15.00;99.90
3262;DHT22;1643;47.746;9.000;2023-04-29T01:20:15;15.00;99.90
3262;DHT22;1643;47.746;9.000;2023-04-29T01:22:41;14.90;99.90
3262;DHT22;1643;47.746;9.000;2023-04-29T01:25:07;14.90;99.90
3262;DHT22;1643;47.746;9.000;2023-04-29T01:32:45;14.90;99.90
3262;DHT22;1643;47.746;9.000;2023-04-29T01:35:33;14.90;99.90
3262;DHT22;1643;47.746;9.000;2023-04-29T01:40:33;14.90;99.90
3262;DHT22;1643;47.746;9.000;2023-04-29T01:43:03;14.90;99.90
3262;DHT22;1643;47.746;9.000;2023-04-29T01:45:31;14.90;99.90
3262;DHT22;1643;47.746;9.000;2023-04-29T01:47:58;14.90;99.90
3262;DHT22;1643;47.746;9.000;2023-04-29T01:50:25;14.90;99.90
3262;DHT22;1643;47.746;9.000;2023-04-29T01:52:51;14.90;99.90
3262;DHT22;1643;47.746;9.000;2023-04-29T01:55:16;14.90;99.90
3262;DHT22;1643;47.746;9.000;2023-04-29T01:57:42;14.90;99.90
3262;DHT22;1643;47.746;9.000;2023-04-29T02:00:09;14.90;99.90
3262;DHT22;1643;47.746;9.000;2023-04-29T02:02:35;14.90;99.90
3262;DHT22;1643;47.746;9.000;2023-04-29T02:05:01;14.90;99.90
3262;DHT22;1643;47.746;9.000;2023-04-29T02:07:26;14.90;99.90
3262;DHT22;1643;47.746;9.000;2023-04-29T02:09:52;14.90;99.90
3262;DHT22;1643;47.746;9.000;2023-04-29T02:12:18;14.90;99.90
3262;DHT22;1643;47.746;9.000;2023-04-29T02:14:44;14.90;99.90
3262;DHT22;1643;47.746;9.000;2023-04-29T02:17:12;14.90;99.90
3262;DHT22;1643;47.746;9.000;2023-04-29T02:19:38;14.90;99.90
3262;DHT22;1643;47.746;9.000;2023-04-29T02:22:03;14.90;99.90
3262;DHT22;1643;47.746;9.000;2023-04-29T02:24:29;14.90;99.90
3262;DHT22;1643;47.746;9.000;2023-04-29T02:26:55;14.90;99.90
3262;DHT22;1643;47.746;9.000;2023-04-29T02:29:20;14.90;99.90
3262;DHT22;1643;47.746;9.000;2023-04-29T02:31:46;14.90;99.90
3262;DHT22;1643;47.746;9.000;2023-04-29T02:34:11;14.90;99.90
3262;DHT22;1643;47.746;9.000;2023-04-29T02:36:37;14.90;99.90
3262;DHT22;1643;47.746;9.000;2023-04-29T02:39:03;14.90;99.90
3262;DHT22;1643;47.746;9.000;2023-04-29T02:41:29;14.90;99.90
3262;DHT22;1643;47.746;9.000;2023-04-29T02:43:54;14.90;99.90
3262;DHT22;1643;47.746;9.000;2023-04-29T02:46:20;14.90;99.90
3262;DHT22;1643;47.746;9.000;2023-04-29T02:48:45;14.90;99.90
3262;DHT22;1643;47.746;9.000;2023-04-29T02:51:11;14.90;99.90
3262;DHT22;1643;47.746;9.000;2023-04-29T02:53:37;14.80;99.90
3262;DHT22;1643;47.746;9.000;2023-04-29T02:56:03;14.80;99.90
3262;DHT22;1643;47.746;9.000;2023-04-29T02:58:28;14.80;99.90
3262;DHT22;1643;47.746;9.000;2023-04-29T03:00:54;14.80;99.90
3262;DHT22;1643;47.746;9.000;2023-04-29T03:03:19;14.70;99.90
3262;DHT22;1643;47.746;9.000;2023-04-29T03:05:45;14.70;99.90
3262;DHT22;1643;47.746;9.000;2023-04-29T03:08:11;14.70;99.90
3262;DHT22;1643;47.746;9.000;2023-04-29T03:10:36;14.70;99.90
3262;DHT22;1643;47.746;9.000;2023-04-29T03:13:03;14.70;99.90
3262;DHT22;1643;47.746;9.000;2023-04-29T03:15:29;14.70;99.90
3262;DHT22;1643;47.746;9.000;2023-04-29T03:17:55;14.70;99.90
3262;DHT22;1643;47.746;9.000;2023-04-29T03:20:20;14.70;99.90
3262;DHT22;1643;47.746;9.000;2023-04-29T03:22:46;14.70;99.90
3262;DHT22;1643;47.746;9.000;2023-04-29T03:25:12;14.70;99.90
3262;DHT22;1643;47.746;9.000;2023-04-29T03:27:37;14.70;99.90
3262;DHT22;1643;47.746;9.000;2023-04-29T03:30:04;14.70;99.90
3262;DHT22;1643;47.746;9.000;2023-04-29T03:32:30;14.70;99.90
3262;DHT22;1643;47.746;9.000;2023-04-29T03:34:55;14.70;99.90
3262;DHT22;1643;47.746;9.000;2023-04-29T03:37:21;14.70;99.90
3262;DHT22;1643;47.746;9.000;2023-04-29T03:39:47;14.70;99.90
3262;DHT22;1643;47.746;9.000;2023-04-29T03:42:13;14.70;99.90
3262;DHT22;1643;47.746;9.000;2023-04-29T03:44:38;14.70;99.90
3262;DHT22;1643;47.746;9.000;2023-04-29T03:47:04;14.70;99.90
3262;DHT22;1643;47.746;9.000;2023-04-29T03:49:31;14.70;99.90
3262;DHT22;1643;47.746;9.000;2023-04-29T03:51:56;14.70;99.90
3262;DHT22;1643;47.746;9.000;2023-04-29T03:54:22;14.70;99.90
3262;DHT22;1643;47.746;9.000;2023-04-29T03:56:48;14.70;99.90
3262;DHT22;1643;47.746;9.000;2023-04-29T03:59:13;14.70;99.90
3262;DHT22;1643;47.746;9.000;2023-04-29T04:01:39;14.70;99.90
3262;DHT22;1643;47.746;9.000;2023-04-29T04:04:05;14.70;99.90
3262;DHT22;1643;47.746;9.000;2023-04-29T04:06:31;14.60;99.90
3262;DHT22;1643;47.746;9.000;2023-04-29T04:08:56;14.60;99.90
3262;DHT22;1643;47.746;9.000;2023-04-29T04:11:22;14.60;99.90
3262;DHT22;1643;47.746;9.000;2023-04-29T04:13:47;14.50;99.90
3262;DHT22;1643;47.746;9.000;2023-04-29T04:16:14;14.50;99.90
3262;DHT22;1643;47.746;9.000;2023-04-29T04:18:39;14.50;99.90
3262;DHT22;1643;47.746;9.000;2023-04-29T04:21:09;14.50;99.90
3262;DHT22;1643;47.746;9.000;2023-04-29T04:23:35;14.50;99.90
3262;DHT22;1643;47.746;9.000;2023-04-29T04:26:02;14.50;99.90
3262;DHT22;1643;47.746;9.000;2023-04-29T04:28:28;14.50;99.90
3262;DHT22;1643;47.746;9.000;2023-04-29T04:30:53;14.50;99.90
3262;DHT22;1643;47.746;9.000;2023-04-29T04:33:19;14.40;99.90
3262;DHT22;1643;47.746;9.000;2023-04-29T04:35:45;14.50;99.90
3262;DHT22;1643;47.746;9.000;2023-04-29T04:38:10;14.50;99.90
3262;DHT22;1643;47.746;9.000;2023-04-29T04:40:40;14.50;99.90
3262;DHT22;1643;47.746;9.000;2023-04-29T04:43:06;14.50;99.90
3262;DHT22;1643;47.746;9.000;2023-04-29T04:45:31;14.50;99.90
3262;DHT22;1643;47.746;9.000;2023-04-29T04:47:57;14.50;99.90
3262;DHT22;1643;47.746;9.000;2023-04-29T04:50:22;14.50;99.90
3262;DHT22;1643;47.746;9.000;2023-04-29T04:52:48;14.50;99.90
3262;DHT22;1643;47.746;9.000;2023-04-29T04:55:14;14.50;99.90
3262;DHT22;1643;47.746;9.000;2023-04-29T04:57:39;14.50;99.90
3262;DHT22;1643;47.746;9.000;2023-04-29T05:00:06;14.50;99.90
3262;DHT22;1643;47.746;9.000;2023-04-29T05:02:31;14.50;99.90
3262;DHT22;1643;47.746;9.000;2023-04-29T05:04:57;14.50;99.90
3262;DHT22;1643;47.746;9.000;2023-04-29T05:07:23;14.50;99.90
3262;DHT22;1643;47.746;9.000;2023-04-29T05:09:48;14.60;99.90
3262;DHT22;1643;47.746;9.000;2023-04-29T05:12:14;14.60;99.90
3262;DHT22;1643;47.746;9.000;2023-04-29T05:14:40;14.70;99.90
3262;DHT22;1643;47.746;9.000;2023-04-29T05:17:05;14.60;99.90
3262;DHT22;1643;47.746;9.000;2023-04-29T05:19:31;14.60;99.90
3262;DHT22;1643;47.746;9.000;2023-04-29T05:21:56;14.70;99.90
3262;DHT22;1643;47.746;9.000;2023-04-29T05:24:22;14.70;99.90
3262;DHT22;1643;47.746;9.000;2023-04-29T05:26:48;14.80;99.90
3262;DHT22;1643;47.746;9.000;2023-04-29T05:29:16;14.80;99.90
3262;DHT22;1643;47.746;9.000;2023-04-29T05:31:41;14.80;99.90
3262;DHT22;1643;47.746;9.000;2023-04-29T05:34:07;14.80;99.90
3262;DHT22;1643;47.746;9.000;2023-04-29T05:36:33;14.90;99.90
3262;DHT22;1643;47.746;9.000;2023-04-29T05:38:58;14.90;99.90
3262;DHT22;1643;47.746;9.000;2023-04-29T05:41:24;14.80;99.90
3262;DHT22;1643;47.746;9.000;2023-04-29T05:43:50;14.90;99.90
3262;DHT22;1643;47.746;9.000;2023-04-29T05:46:16;14.90;99.90
3262;DHT22;1643;47.746;9.000;2023-04-29T05:48:42;14.90;99.90
3262;DHT22;1643;47.746;9.000;2023-04-29T05:51:08;14.90;99.90
3262;DHT22;1643;47.746;9.000;2023-04-29T05:53:33;14.90;99.90
3262;DHT22;1643;47.746;9.000;2023-04-29T05:56:00;15.00;99.90
3262;DHT22;1643;47.746;9.000;2023-04-29T05:58:29;15.00;99.90
3262;DHT22;1643;47.746;9.000;2023-04-29T06:00:55;15.10;99.90
3262;DHT22;1643;47.746;9.000;2023-04-29T06:03:21;15.10;99.90
3262;DHT22;1643;47.746;9.000;2023-04-29T06:05:46;15.20;99.90
3262;DHT22;1643;47.746;9.000;2023-04-29T06:08:12;15.20;99.90
3262;DHT22;1643;47.746;9.000;2023-04-29T06:10:38;15.30;99.90
3262;DHT22;1643;47.746;9.000;2023-04-29T06:13:04;15.40;99.90
3262;DHT22;1643;47.746;9.000;2023-04-29T06:15:29;15.40;99.90
3262;DHT22;1643;47.746;9.000;2023-04-29T06:17:55;15.50;99.90
3262;DHT22;1643;47.746;9.000;2023-04-29T06:20:20;15.50;99.90
3262;DHT22;1643;47.746;9.000;2023-04-29T06:22:46;15.50;99.90
3262;DHT22;1643;47.746;9.000;2023-04-29T06:25:12;15.60;99.90
3262;DHT22;1643;47.746;9.000;2023-04-29T06:27:38;15.70;99.90
3262;DHT22;1643;47.746;9.000;2023-04-29T06:30:04;15.80;99.90
3262;DHT22;1643;47.746;9.000;2023-04-29T06:32:30;15.80;99.90
3262;DHT22;1643;47.746;9.000;2023-04-29T06:34:55;15.90;99.90
3262;DHT22;1643;47.746;9.000;2023-04-29T06:37:21;15.90;99.90
3262;DHT22;1643;47.746;9.000;2023-04-29T06:39:47;15.90;99.90
3262;DHT22;1643;47.746;9.000;2023-04-29T06:42:12;16.00;99.90
3262;DHT22;1643;47.746;9.000;2023-04-29T06:44:38;16.00;99.90
3262;DHT22;1643;47.746;9.000;2023-04-29T06:47:04;16.00;99.90
3262;DHT22;1643;47.746;9.000;2023-04-29T06:49:29;16.00;99.90
3262;DHT22;1643;47.746;9.000;2023-04-29T06:51:55;16.10;99.90
3262;DHT22;1643;47.746;9.000;2023-04-29T06:54:21;16.20;99.90
3262;DHT22;1643;47.746;9.000;2023-04-29T06:56:46;16.20;99.90
3262;DHT22;1643;47.746;9.000;2023-04-29T06:59:12;16.20;99.90
3262;DHT22;1643;47.746;9.000;2023-04-29T07:01:39;16.20;99.90
3262;DHT22;1643;47.746;9.000;2023-04-29T07:04:05;16.30;99.90
3262;DHT22;1643;47.746;9.000;2023-04-29T07:06:31;16.40;99.90
3262;DHT22;1643;47.746;9.000;2023-04-29T07:08:56;16.40;99.90
3262;DHT22;1643;47.746;9.000;2023-04-29T07:11:22;16.50;99.90
3262;DHT22;1643;47.746;9.000;2023-04-29T07:13:51;16.60;99.90
3262;DHT22;1643;47.746;9.000;2023-04-29T07:16:17;16.60;99.90
3262;DHT22;1643;47.746;9.000;2023-04-29T07:18:46;16.70;99.90
3262;DHT22;1643;47.746;9.000;2023-04-29T07:21:12;16.80;99.90
3262;DHT22;1643;47.746;9.000;2023-04-29T07:23:38;16.80;99.90
3262;DHT22;1643;47.746;9.000;2023-04-29T07:26:14;16.90;99.90
3262;DHT22;1643;47.746;9.000;2023-04-29T07:28:41;16.90;99.90
3262;DHT22;1643;47.746;9.000;2023-04-29T07:31:07;16.90;99.90
3262;DHT22;1643;47.746;9.000;2023-04-29T07:33:33;16.80;99.90
3262;DHT22;1643;47.746;9.000;2023-04-29T07:36:00;16.80;99.90
3262;DHT22;1643;47.746;9.000;2023-04-29T07:38:25;16.80;99.90
3262;DHT22;1643;47.746;9.000;2023-04-29T07:40:51;16.70;99.90
3262;DHT22;1643;47.746;9.000;2023-04-29T07:43:17;16.80;99.90
3262;DHT22;1643;47.746;9.000;2023-04-29T07:45:42;16.80;99.90
3262;DHT22;1643;47.746;9.000;2023-04-29T07:48:08;17.00;99.90
3262;DHT22;1643;47.746;9.000;2023-04-29T07:50:34;17.00;99.90
3262;DHT22;1643;47.746;9.000;2023-04-29T07:53:01;17.00;99.90
3262;DHT22;1643;47.746;9.000;2023-04-29T07:55:27;16.90;99.90
3262;DHT22;1643;47.746;9.000;2023-04-29T07:57:56;17.00;99.90
3262;DHT22;1643;47.746;9.000;2023-04-29T08:00:22;17.00;99.90
3262;DHT22;1643;47.746;9.000;2023-04-29T08:02:52;17.00;99.90
3262;DHT22;1643;47.746;9.000;2023-04-29T08:05:18;17.00;99.90
3262;DHT22;1643;47.746;9.000;2023-04-29T08:07:46;17.10;99.90
3262;DHT22;1643;47.746;9.000;2023-04-29T08:10:12;17.10;99.90
3262;DHT22;1643;47.746;9.000;2023-04-29T08:12:38;17.20;99.90
3262;DHT22;1643;47.746;9.000;2023-04-29T08:15:04;17.20;99.90
3262;DHT22;1643;47.746;9.000;2023-04-29T08:17:30;17.30;99.90
3262;DHT22;1643;47.746;9.000;2023-04-29T08:19:55;17.30;99.90
3262;DHT22;1643;47.746;9.000;2023-04-29T08:22:21;17.20;99.90
3262;DHT22;1643;47.746;9.000;2023-04-29T08:24:47;17.20;99.90
3262;DHT22;1643;47.746;9.000;2023-04-29T08:27:13;17.20;99.90
3262;DHT22;1643;47.746;9.000;2023-04-29T08:29:39;17.30;99.90
3262;DHT22;1643;47.746;9.000;2023-04-29T08:32:06;17.30;99.90
3262;DHT22;1643;47.746;9.000;2023-04-29T08:34:31;17.40;99.90
3262;DHT22;1643;47.746;9.000;2023-04-29T08:36:58;17.30;99.90
3262;DHT22;1643;47.746;9.000;2023-04-29T08:39:24;17.30;99.90
3262;DHT22;1643;47.746;9.000;2023-04-29T08:41:50;17.30;99.90
3262;DHT22;1643;47.746;9.000;2023-04-29T08:44:17;17.30;99.90
3262;DHT22;1643;47.746;9.000;2023-04-29T08:46:44;17.50;99.90
3262;DHT22;1643;47.746;9.000;2023-04-29T08:49:10;17.50;99.90
3262;DHT22;1643;47.746;9.000;2023-04-29T08:51:37;17.50;99.90
3262;DHT22;1643;47.746;9.000;2023-04-29T08:54:03;17.50;99.90
3262;DHT22;1643;47.746;9.000;2023-04-29T08:56:29;17.70;99.90
3262;DHT22;1643;47.746;9.000;2023-04-29T08:58:56;17.70;99.90
3262;DHT22;1643;47.746;9.000;2023-04-29T09:01:26;17.60;99.90
3262;DHT22;1643;47.746;9.000;2023-04-29T09:06:30;17.50;99.90
3262;DHT22;1643;47.746;9.000;2023-04-29T09:09:00;17.50;99.90
3262;DHT22;1643;47.746;9.000;2023-04-29T09:11:29;17.60;99.90
3262;DHT22;1643;47.746;9.000;2023-04-29T09:14:01;17.70;99.90
3262;DHT22;1643;47.746;9.000;2023-04-29T09:16:27;17.70;99.90
3262;DHT22;1643;47.746;9.000;2023-04-29T09:18:53;17.80;99.90
3262;DHT22;1643;47.746;9.000;2023-04-29T09:21:20;17.80;99.90
3262;DHT22;1643;47.746;9.000;2023-04-29T09:23:48;17.80;99.90
3262;DHT22;1643;47.746;9.000;2023-04-29T09:26:15;17.90;99.90
3262;DHT22;1643;47.746;9.000;2023-04-29T09:28:41;17.80;99.90
3262;DHT22;1643;47.746;9.000;2023-04-29T09:31:10;17.80;99.90
3262;DHT22;1643;47.746;9.000;2023-04-29T09:33:52;18.00;99.90
3262;DHT22;1643;47.746;9.000;2023-04-29T09:36:44;17.90;99.90
3262;DHT22;1643;47.746;9.000;2023-04-29T09:39:14;18.10;99.90
3262;DHT22;1643;47.746;9.000;2023-04-29T09:44:20;18.10;99.90
3262;DHT22;1643;47.746;9.000;2023-04-29T09:47:02;18.10;99.90
3262;DHT22;1643;47.746;9.000;2023-04-29T09:49:30;18.20;99.90
3262;DHT22;1643;47.746;9.000;2023-04-29T09:51:59;18.20;99.90
3262;DHT22;1643;47.746;9.000;2023-04-29T09:54:27;18.30;99.90
3262;DHT22;1643;47.746;9.000;2023-04-29T09:56:54;18.40;99.90
3262;DHT22;1643;47.746;9.000;2023-04-29T09:59:20;18.40;99.90
3262;DHT22;1643;47.746;9.000;2023-04-29T10:01:54;18.50;99.90
3262;DHT22;1643;47.746;9.000;2023-04-29T10:04:21;18.50;99.90
3262;DHT22;1643;47.746;9.000;2023-04-29T10:06:49;18.60;99.90
3262;DHT22;1643;47.746;9.000;2023-04-29T10:09:16;18.70;99.90
3262;DHT22;1643;47.746;9.000;2023-04-29T10:12:01;18.80;99.90
3262;DHT22;1643;47.746;9.000;2023-04-29T10:14:29;18.70;99.90
3262;DHT22;1643;47.746;9.000;2023-04-29T10:17:45;18.60;99.90
3262;DHT22;1643;47.746;9.000;2023-04-29T10:20:04;18.60;99.90
3262;DHT22;1643;47.746;9.000;2023-04-29T10:22:45;18.70;99.90
3262;DHT22;1643;47.746;9.000;2023-04-29T10:25:11;18.90;99.90
3262;DHT22;1643;47.746;9.000;2023-04-29T10:27:41;18.90;99.90
3262;DHT22;1643;47.746;9.000;2023-04-29T10:30:11;18.90;99.90
3262;DHT22;1643;47.746;9.000;2023-04-29T10:32:40;18.90;99.90
3262;DHT22;1643;47.746;9.000;2023-04-29T10:35:10;19.00;99.90
3262;DHT22;1643;47.746;9.000;2023-04-29T10:37:37;19.00;99.90
3262;DHT22;1643;47.746;9.000;2023-04-29T10:42:50;19.20;99.90
3262;DHT22;1643;47.746;9.000;2023-04-29T10:45:20;19.10;99.90
3262;DHT22;1643;47.746;9.000;2023-04-29T10:50:34;19.40;99.90
3262;DHT22;1643;47.746;9.000;2023-04-29T10:53:04;19.40;99.90
3262;DHT22;1643;47.746;9.000;2023-04-29T10:55:30;19.50;99.90
3262;DHT22;1643;47.746;9.000;2023-04-29T10:57:56;19.80;99.90
3262;DHT22;1643;47.746;9.000;2023-04-29T11:00:25;19.80;99.90
3262;DHT22;1643;47.746;9.000;2023-04-29T11:02:55;19.90;99.90
3262;DHT22;1643;47.746;9.000;2023-04-29T11:05:32;20.00;99.90
3262;DHT22;1643;47.746;9.000;2023-04-29T11:08:19;19.90;99.90
3262;DHT22;1643;47.746;9.000;2023-04-29T11:10:52;20.00;99.90
3262;DHT22;1643;47.746;9.000;2023-04-29T11:13:25;20.20;99.90
3262;DHT22;1643;47.746;9.000;2023-04-29T11:15:52;20.20;99.90
3262;DHT22;1643;47.746;9.000;2023-04-29T11:18:17;20.10;99.90
3262;DHT22;1643;47.746;9.000;2023-04-29T11:23:34;20.20;99.90
3262;DHT22;1643;47.746;9.000;2023-04-29T11:26:01;20.20;99.90
3262;DHT22;1643;47.746;9.000;2023-04-29T11:28:27;20.20;99.90
3262;DHT22;1643;47.746;9.000;2023-04-29T11:30:56;20.20;99.90
3262;DHT22;1643;47.746;9.000;2023-04-29T11:33:22;20.20;99.90
3262;DHT22;1643;47.746;9.000;2023-04-29T11:35:48;20.30;99.90
3262;DHT22;1643;47.746;9.000;2023-04-29T11:38:13;20.30;99.90
3262;DHT22;1643;47.746;9.000;2023-04-29T11:40:47;20.10;99.90
3262;DHT22;1643;47.746;9.000;2023-04-29T11:43:17;20.10;99.90
3262;DHT22;1643;47.746;9.000;2023-04-29T11:45:46;20.20;99.90
3262;DHT22;1643;47.746;9.000;2023-04-29T11:50:46;19.90;99.90
3262;DHT22;1643;47.746;9.000;2023-04-29T11:53:12;19.80;99.90
3262;DHT22;1643;47.746;9.000;2023-04-29T11:55:40;19.70;99.90
3262;DHT22;1643;47.746;9.000;2023-04-29T11:58:06;19.70;99.90
3262;DHT22;1643;47.746;9.000;2023-04-29T12:00:32;19.80;99.90
3262;DHT22;1643;47.746;9.000;2023-04-29T12:02:57;19.70;99.90
3262;DHT22;1643;47.746;9.000;2023-04-29T12:05:26;19.80;99.90
3262;DHT22;1643;47.746;9.000;2023-04-29T12:07:53;19.80;99.90
3262;DHT22;1643;47.746;9.000;2023-04-29T12:10:19;19.50;99.90
3262;DHT22;1643;47.746;9.000;2023-04-29T12:12:46;19.20;99.90
3262;DHT22;1643;47.746;9.000;2023-04-29T12:15:12;19.00;99.90
3262;DHT22;1643;47.746;9.000;2023-04-29T12:17:38;18.80;99.90
3262;DHT22;1643;47.746;9.000;2023-04-29T12:20:06;18.70;99.90
3262;DHT22;1643;47.746;9.000;2023-04-29T12:22:33;18.70;99.90
3262;DHT22;1643;47.746;9.000;2023-04-29T12:25:01;18.70;99.90
3262;DHT22;1643;47.746;9.000;2023-04-29T12:27:27;18.70;99.90
3262;DHT22;1643;47.746;9.000;2023-04-29T12:29:53;18.60;99.90
3262;DHT22;1643;47.746;9.000;2023-04-29T12:32:22;18.40;99.90
3262;DHT22;1643;47.746;9.000;2023-04-29T12:34:50;18.30;99.90
3262;DHT22;1643;47.746;9.000;2023-04-29T12:37:17;18.10;99.90
3262;DHT22;1643;47.746;9.000;2023-04-29T12:39:43;17.90;99.90
3262;DHT22;1643;47.746;9.000;2023-04-29T12:42:14;17.90;99.90
3262;DHT22;1643;47.746;9.000;2023-04-29T12:44:46;17.80;99.90
3262;DHT22;1643;47.746;9.000;2023-04-29T12:47:13;17.70;99.90
3262;DHT22;1643;47.746;9.000;2023-04-29T12:49:46;17.80;99.90
3262;DHT22;1643;47.746;9.000;2023-04-29T12:52:12;17.80;99.90
3262;DHT22;1643;47.746;9.000;2023-04-29T12:54:39;17.80;99.90
3262;DHT22;1643;47.746;9.000;2023-04-29T12:57:08;17.70;99.90
3262;DHT22;1643;47.746;9.000;2023-04-29T12:59:35;17.60;99.90
3262;DHT22;1643;47.746;9.000;2023-04-29T13:02:01;17.30;99.90
3262;DHT22;1643;47.746;9.000;2023-04-29T13:04:26;17.10;99.90
3262;DHT22;1643;47.746;9.000;2023-04-29T13:06:53;17.00;99.90
3262;DHT22;1643;47.746;9.000;2023-04-29T13:09:27;16.80;99.90
3262;DHT22;1643;47.746;9.000;2023-04-29T13:11:53;16.80;99.90
3262;DHT22;1643;47.746;9.000;2023-04-29T13:14:18;16.80;99.90
3262;DHT22;1643;47.746;9.000;2023-04-29T13:16:44;16.80;99.90
3262;DHT22;1643;47.746;9.000;2023-04-29T13:19:10;16.90;99.90
3262;DHT22;1643;47.746;9.000;2023-04-29T13:21:37;17.00;99.90
3262;DHT22;1643;47.746;9.000;2023-04-29T13:24:02;17.10;99.90
3262;DHT22;1643;47.746;9.000;2023-04-29T13:26:28;17.10;99.90
3262;DHT22;1643;47.746;9.000;2023-04-29T13:28:54;17.20;99.90
3262;DHT22;1643;47.746;9.000;2023-04-29T13:31:20;17.20;99.90
3262;DHT22;1643;47.746;9.000;2023-04-29T13:33:45;17.20;99.90
3262;DHT22;1643;47.746;9.000;2023-04-29T13:36:13;17.30;99.90
3262;DHT22;1643;47.746;9.000;2023-04-29T13:38:39;17.30;99.90
3262;DHT22;1643;47.746;9.000;2023-04-29T13:41:05;17.40;99.90
3262;DHT22;1643;47.746;9.000;2023-04-29T13:43:30;17.50;99.90
3262;DHT22;1643;47.746;9.000;2023-04-29T13:45:56;17.40;99.90
3262;DHT22;1643;47.746;9.000;2023-04-29T13:48:22;17.30;99.90
3262;DHT22;1643;47.746;9.000;2023-04-29T13:50:48;17.20;99.90
3262;DHT22;1643;47.746;9.000;2023-04-29T13:53:13;17.20;99.90
3262;DHT22;1643;47.746;9.000;2023-04-29T13:55:41;17.20;99.90
3262;DHT22;1643;47.746;9.000;2023-04-29T13:58:07;17.20;99.90
3262;DHT22;1643;47.746;9.000;2023-04-29T14:00:32;17.20;99.90
3262;DHT22;1643;47.746;9.000;2023-04-29T14:02:58;17.20;99.90
3262;DHT22;1643;47.746;9.000;2023-04-29T14:05:24;17.20;99.90
3262;DHT22;1643;47.746;9.000;2023-04-29T14:07:49;17.30;99.90
3262;DHT22;1643;47.746;9.000;2023-04-29T14:10:16;17.40;99.90
3262;DHT22;1643;47.746;9.000;2023-04-29T14:12:41;17.50;99.90
3262;DHT22;1643;47.746;9.000;2023-04-29T14:15:07;17.50;99.90
3262;DHT22;1643;47.746;9.000;2023-04-29T14:17:33;17.60;99.90
3262;DHT22;1643;47.746;9.000;2023-04-29T14:19:59;17.60;99.90
3262;DHT22;1643;47.746;9.000;2023-04-29T14:22:24;17.70;99.90
3262;DHT22;1643;47.746;9.000;2023-04-29T14:24:51;17.70;99.90
3262;DHT22;1643;47.746;9.000;2023-04-29T14:27:17;17.70;99.90
3262;DHT22;1643;47.746;9.000;2023-04-29T14:29:42;17.70;99.90
3262;DHT22;1643;47.746;9.000;2023-04-29T14:32:08;17.70;99.90
3262;DHT22;1643;47.746;9.000;2023-04-29T14:34:34;17.80;99.90
3262;DHT22;1643;47.746;9.000;2023-04-29T14:37:00;17.80;99.90
3262;DHT22;1643;47.746;9.000;2023-04-29T14:39:25;17.80;99.90
3262;DHT22;1643;47.746;9.000;2023-04-29T14:41:51;17.90;99.90
3262;DHT22;1643;47.746;9.000;2023-04-29T14:44:17;17.90;99.90
3262;DHT22;1643;47.746;9.000;2023-04-29T14:46:42;18.00;99.90
3262;DHT22;1643;47.746;9.000;2023-04-29T14:49:08;18.10;99.90
3262;DHT22;1643;47.746;9.000;2023-04-29T14:51:34;18.10;99.90
3262;DHT22;1643;47.746;9.000;2023-04-29T14:54:00;18.00;99.90
3262;DHT22;1643;47.746;9.000;2023-04-29T14:56:25;18.10;99.90
3262;DHT22;1643;47.746;9.000;2023-04-29T14:58:51;18.30;99.90
3262;DHT22;1643;47.746;9.000;2023-04-29T15:01:17;18.40;99.90
3262;DHT22;1643;47.746;9.000;2023-04-29T15:03:43;18.70;99.90
3262;DHT22;1643;47.746;9.000;2023-04-29T15:06:08;19.20;99.90
3262;DHT22;1643;47.746;9.000;2023-04-29T15:08:34;19.50;99.90
3262;DHT22;1643;47.746;9.000;2023-04-29T15:10:59;19.70;99.90
3262;DHT22;1643;47.746;9.000;2023-04-29T15:13:25;20.00;99.90
3262;DHT22;1643;47.746;9.000;2023-04-29T15:15:50;20.10;99.90
3262;DHT22;1643;47.746;9.000;2023-04-29T15:18:16;20.10;99.90
3262;DHT22;1643;47.746;9.000;2023-04-29T15:20:42;20.20;99.90
3262;DHT22;1643;47.746;9.000;2023-04-29T15:23:07;20.20;99.90
3262;DHT22;1643;47.746;9.000;2023-04-29T15:25:33;20.10;99.90
3262;DHT22;1643;47.746;9.000;2023-04-29T15:28:00;19.90;99.90
3262;DHT22;1643;47.746;9.000;2023-04-29T15:30:26;19.70;99.90
3262;DHT22;1643;47.746;9.000;2023-04-29T15:32:52;19.90;99.90
3262;DHT22;1643;47.746;9.000;2023-04-29T15:35:17;20.10;99.90
3262;DHT22;1643;47.746;9.000;2023-04-29T15:37:43;20.10;99.90
3262;DHT22;1643;47.746;9.000;2023-04-29T15:40:09;20.20;99.90
3262;DHT22;1643;47.746;9.000;2023-04-29T15:42:35;20.20;99.90
3262;DHT22;1643;47.746;9.000;2023-04-29T15:45:00;20.10;99.90
3262;DHT22;1643;47.746;9.000;2023-04-29T15:47:26;20.30;99.90
3262;DHT22;1643;47.746;9.000;2023-04-29T15:49:52;20.40;99.90
3262;DHT22;1643;47.746;9.000;2023-04-29T15:52:20;20.30;99.90
3262;DHT22;1643;47.746;9.000;2023-04-29T15:54:45;20.20;99.90
3262;DHT22;1643;47.746;9.000;2023-04-29T15:57:11;20.10;99.90
3262;DHT22;1643;47.746;9.000;2023-04-29T15:59:36;20.00;99.90
3262;DHT22;1643;47.746;9.000;2023-04-29T16:02:02;19.90;99.90
3262;DHT22;1643;47.746;9.000;2023-04-29T16:04:28;19.90;99.90
3262;DHT22;1643;47.746;9.000;2023-04-29T16:06:55;19.90;99.90
3262;DHT22;1643;47.746;9.000;2023-04-29T16:09:21;20.00;99.90
3262;DHT22;1643;47.746;9.000;2023-04-29T16:11:47;20.10;99.90
3262;DHT22;1643;47.746;9.000;2023-04-29T16:14:12;20.00;99.90
3262;DHT22;1643;47.746;9.000;2023-04-29T16:16:38;20.10;99.90
3262;DHT22;1643;47.746;9.000;2023-04-29T16:19:03;20.00;99.90
3262;DHT22;1643;47.746;9.000;2023-04-29T16:21:29;19.90;99.90
3262;DHT22;1643;47.746;9.000;2023-04-29T16:23:55;20.00;99.90
3262;DHT22;1643;47.746;9.000;2023-04-29T16:26:21;20.00;99.90
3262;DHT22;1643;47.746;9.000;2023-04-29T16:28:46;20.00;99.90